Time;durP1;ratioP1;P1;durP2;ratioP2;P2;SDS_P1;SDS_P2;PMS_P1;PMS_P2;Temp;Humidity;BMP_temperature;BMP_pressure;BME280_temperature;BME280_humidity;BME280_pressure;Samples;Min_cycle;Max_cycle;Signal;HPM_P1;HPM_P2
2022/05/01 00:00:47;;;;;;;10.95;3.80;;;;;;;18.51;33.44;98963.25;4489107;31;20549;-85
2022/05/01 00:03:30;;;;;;;;;;;;;;;18.49;33.55;98965.22;4503547;31;20110;-85
2022/05/01 00:05:59;;;;;;;8.73;3.15;;;;;;;18.59;33.43;98960.78;4503341;31;19980;-84
2022/05/01 00:08:24;;;;;;;8.85;3.65;;;;;;;18.55;33.35;98959.34;4503156;31;20114;-85
2022/05/01 00:10:50;;;;;;;9.30;3.40;;;;;;;18.51;33.49;98963.25;4488747;31;20351;-84
2022/05/01 00:13:15;;;;;;;9.25;3.92;;;;;;;18.56;33.49;98962.84;4488739;31;20084;-84
2022/05/01 00:15:42;;;;;;;9.43;3.87;;;;;;;18.53;33.36;98952.47;4502931;31;20136;-85
2022/05/01 00:18:07;;;;;;;8.13;3.47;;;;;;;18.52;33.33;98956.09;4503014;31;20085;-84
2022/05/01 00:20:33;;;;;;;8.85;3.70;;;;;;;18.49;33.50;98961.69;4503001;31;20163;-85
2022/05/01 00:22:58;;;;;;;10.77;4.45;;;;;;;18.45;33.62;98956.63;4488541;31;20079;-86
2022/05/01 00:25:24;;;;;;;8.57;3.70;;;;;;;18.39;34.04;98958.97;4503045;31;20084;-85
2022/05/01 00:27:49;;;;;;;9.65;3.95;;;;;;;18.45;33.91;98955.78;4488753;31;20440;-84
2022/05/01 00:30:14;;;;;;;10.90;3.90;;;;;;;18.46;33.90;98958.28;4488612;31;20455;-84
2022/05/01 00:38:08;;;;;;;9.48;3.90;;;;;;;18.47;34.02;98956.50;4502947;31;20395;-84
2022/05/01 00:40:33;;;;;;;9.50;3.87;;;;;;;18.49;33.74;98957.19;4502840;31;20139;-85
2022/05/01 00:43:04;;;;;;;10.30;3.87;;;;;;;18.49;33.71;98962.53;4487748;31;20109;-85
2022/05/01 00:45:30;;;;;;;9.48;3.70;;;;;;;18.51;33.82;98965.09;4502796;31;20439;-85
2022/05/01 00:47:55;;;;;;;9.27;3.65;;;;;;;18.54;33.71;98960.31;4502852;31;20118;-85
2022/05/01 00:50:21;;;;;;;8.85;3.80;;;;;;;18.55;33.77;98964.69;4502749;31;20088;-85
2022/05/01 00:52:46;;;;;;;9.80;4.07;;;;;;;18.35;33.31;98968.16;4488237;31;20069;-85
2022/05/01 00:55:12;;;;;;;9.65;4.35;;;;;;;18.47;33.55;98967.16;4502647;31;20106;-83
2022/05/01 00:57:38;;;;;;;9.35;4.10;;;;;;;18.48;33.54;98971.50;4488393;31;20360;-83
2022/05/01 01:00:04;;;;;;;9.85;3.97;;;;;;;18.45;33.42;98961.09;4488151;31;20118;-84
2022/05/01 01:02:31;;;;;;;9.32;3.92;;;;;;;18.48;33.40;98960.84;4488352;31;20402;-84
2022/05/01 01:04:57;;;;;;;9.35;3.47;;;;;;;18.48;33.73;98950.16;4502745;31;20072;-84
2022/05/01 01:07:25;;;;;;;9.63;4.32;;;;;;;18.45;33.67;98955.78;4488354;31;20179;-84
2022/05/01 01:09:51;;;;;;;9.93;4.00;;;;;;;18.43;33.87;98963.06;4502571;31;20131;-84
2022/05/01 01:15:08;;;;;;;10.02;4.18;;;;;;;18.39;33.92;98966.97;4502675;31;20132;-84
2022/05/01 01:17:36;;;;;;;9.85;4.20;;;;;;;18.43;33.62;98965.72;4502527;31;20511;-84
2022/05/01 01:20:07;;;;;;;;;;;;;;;18.42;33.75;98970.19;4502931;31;20096;-84
2022/05/01 01:22:32;;;;;;;9.30;3.72;;;;;;;18.51;33.73;98957.91;4488216;31;19975;-84
2022/05/01 01:24:58;;;;;;;9.93;4.18;;;;;;;18.44;33.30;98962.91;4502356;31;20084;-84
2022/05/01 01:27:23;;;;;;;10.00;4.10;;;;;;;18.46;33.21;98962.78;4502284;31;20116;-83
2022/05/01 01:32:37;;;;;;;9.98;3.90;;;;;;;18.44;33.70;98962.06;4489957;31;20594;-84
2022/05/01 01:35:04;;;;;;;10.27;4.40;;;;;;;18.42;33.79;98961.34;4488067;31;20122;-84
2022/05/01 01:37:30;;;;;;;10.15;3.72;;;;;;;18.38;33.88;98970.59;4487854;31;20130;-83
2022/05/01 01:39:55;;;;;;;11.88;4.30;;;;;;;18.31;33.60;98966.75;4488031;31;20358;-84
2022/05/01 01:42:21;;;;;;;10.55;3.95;;;;;;;18.33;33.71;98965.66;4487766;31;20131;-85
2022/05/01 01:44:47;;;;;;;9.88;3.92;;;;;;;18.26;33.62;98951.97;4487865;31;20110;-84
2022/05/01 01:47:16;;;;;;;9.40;3.90;;;;;;;17.96;32.95;98954.53;4487826;31;20092;-84
2022/05/01 01:49:41;;;;;;;9.07;3.50;;;;;;;18.12;33.20;98954.97;4502175;31;20493;-84
2022/05/01 01:52:07;;;;;;;9.43;3.65;;;;;;;18.24;33.42;98953.09;4501950;31;20080;-84
2022/05/01 01:54:32;;;;;;;10.60;3.80;;;;;;;18.17;33.35;98958.06;4502999;31;20084;-84
2022/05/01 01:56:59;;;;;;;9.68;3.67;;;;;;;18.24;33.65;98953.09;4504007;31;20139;-84
2022/05/01 01:59:24;;;;;;;10.80;3.78;;;;;;;18.23;33.65;98960.25;4504019;31;20160;-84
2022/05/01 02:01:50;;;;;;;10.00;3.87;;;;;;;18.23;33.87;98956.72;4489691;31;20088;-84
2022/05/01 02:04:15;;;;;;;9.13;3.53;;;;;;;18.26;33.97;98956.47;4503969;31;20116;-84
2022/05/01 02:06:41;;;;;;;12.10;4.40;;;;;;;18.26;33.91;98961.81;4489696;31;20149;-84
2022/05/01 02:09:07;;;;;;;9.52;3.78;;;;;;;18.21;33.02;98958.66;4503940;31;20091;-84
2022/05/01 02:11:35;;;;;;;9.50;3.70;;;;;;;18.13;33.46;98950.47;4489630;31;20499;-84
2022/05/01 02:14:00;;;;;;;;;;;;;;;18.14;33.97;98947.69;4504238;31;20088;-83
2022/05/01 02:16:25;;;;;;;9.68;3.85;;;;;;;18.19;34.25;98945.44;4489622;31;19976;-84
2022/05/01 02:18:51;;;;;;;9.57;3.95;;;;;;;18.14;34.39;98945.00;4503863;31;20123;-84
2022/05/01 02:21:35;;;;;;;9.02;3.75;;;;;;;18.12;34.22;98940.75;4489454;31;20103;-84
2022/05/01 02:24:05;;;;;;;9.95;4.25;;;;;;;18.09;34.06;98947.22;4503893;31;20100;-84
2022/05/01 02:26:30;;;;;;;10.30;4.10;;;;;;;18.10;34.35;98942.72;4489413;31;20447;-83
2022/05/01 02:28:58;;;;;;;10.02;3.95;;;;;;;18.14;34.29;98949.47;4503790;31;20088;-83
2022/05/01 02:31:23;;;;;;;12.07;3.85;;;;;;;17.74;33.78;98944.75;4489448;31;20423;-83
2022/05/01 02:33:48;;;;;;;10.43;3.87;;;;;;;17.95;33.68;98937.69;4503620;31;20183;-83
2022/05/01 02:36:16;;;;;;;10.48;4.03;;;;;;;17.98;33.98;98944.56;4503636;31;20140;-83
2022/05/01 02:38:42;;;;;;;8.40;3.83;;;;;;;17.99;34.33;98939.13;4503832;31;20122;-83
2022/05/01 02:41:07;;;;;;;9.88;3.78;;;;;;;17.98;34.48;98941.91;4489426;31;20106;-83
2022/05/01 02:43:32;;;;;;;8.82;3.87;;;;;;;17.97;34.37;98942.91;4503613;31;20423;-84
2022/05/01 02:45:58;;;;;;;9.73;3.85;;;;;;;17.96;34.28;98938.53;4503737;31;20120;-83
2022/05/01 02:48:23;;;;;;;10.93;3.85;;;;;;;18.04;34.71;98941.41;4503688;31;20083;-83
2022/05/01 02:50:49;;;;;;;8.63;3.75;;;;;;;17.66;34.97;98948.06;4489197;31;20108;-83
2022/05/01 02:53:14;;;;;;;10.00;4.00;;;;;;;17.82;34.46;98942.31;4503520;31;20097;-83
2022/05/01 02:55:39;;;;;;;10.50;3.92;;;;;;;17.68;34.39;98946.94;4503522;31;20096;-84
2022/05/01 02:58:05;;;;;;;10.73;3.70;;;;;;;17.80;34.41;98947.75;4503568;31;20363;-83
2022/05/01 03:00:30;;;;;;;9.55;3.90;;;;;;;17.86;34.72;98943.78;4503565;31;20096;-83
2022/05/01 03:02:56;;;;;;;10.52;4.00;;;;;;;17.90;35.45;98947.88;4489074;31;20107;-83
2022/05/01 03:05:24;;;;;;;9.88;4.10;;;;;;;17.90;35.27;98942.53;4503163;31;20140;-83
2022/05/01 03:07:49;;;;;;;11.23;4.07;;;;;;;17.88;34.84;98939.16;4503533;31;20466;-83
2022/05/01 03:10:15;;;;;;;9.32;3.95;;;;;;;17.90;34.95;98944.38;4503392;31;20115;-83
2022/05/01 03:12:40;;;;;;;9.95;4.03;;;;;;;17.93;35.03;98944.97;4503456;31;20121;-84
2022/05/01 03:15:07;;;;;;;11.23;4.50;;;;;;;17.92;34.93;98947.75;4503410;31;20474;-84
2022/05/01 03:23:01;;;;;;;10.77;3.83;;;;;;;17.87;35.68;98945.47;4491248;31;20163;-84
2022/05/01 03:25:27;;;;;;;10.13;3.90;;;;;;;17.85;35.68;98947.44;4503400;31;20088;-84
2022/05/01 03:27:53;;;;;;;11.63;3.92;;;;;;;17.88;36.04;98940.00;4503448;31;20469;-84
2022/05/01 03:30:19;;;;;;;10.43;3.72;;;;;;;17.86;36.34;98946.44;4503324;31;20744;-84
2022/05/01 03:32:45;;;;;;;10.68;3.97;;;;;;;17.85;36.00;98945.59;4488743;31;20075;-83
2022/05/01 03:35:12;;;;;;;9.77;4.00;;;;;;;17.86;36.05;98949.09;4503375;31;20136;-84
2022/05/01 03:37:38;;;;;;;10.23;4.37;;;;;;;17.85;36.56;98958.94;4489429;31;20159;-83
2022/05/01 03:40:03;;;;;;;12.48;4.37;;;;;;;17.82;36.43;98951.13;4503592;31;20190;-83
2022/05/01 03:42:29;;;;;;;10.27;4.40;;;;;;;17.89;36.11;98951.53;4503470;31;20107;-83
2022/05/01 03:44:55;;;;;;;10.00;4.62;;;;;;;17.90;36.34;98958.53;4503541;31;20106;-84
2022/05/01 03:47:20;;;;;;;10.32;4.18;;;;;;;17.86;36.63;98962.44;4503600;31;20076;-84
2022/05/01 03:49:46;;;;;;;9.82;4.10;;;;;;;17.90;36.29;98957.69;4503491;31;20080;-84
2022/05/01 03:52:11;;;;;;;9.52;3.83;;;;;;;17.84;36.32;98962.53;4489012;31;20416;-84
2022/05/01 03:54:36;;;;;;;9.38;4.10;;;;;;;17.84;36.37;98962.53;4503289;31;20093;-84
2022/05/01 03:57:02;;;;;;;10.25;4.20;;;;;;;17.88;36.18;98963.16;4503438;31;20123;-82
2022/05/01 03:59:29;;;;;;;9.82;4.28;;;;;;;17.80;36.42;98965.56;4503495;31;20082;-84
2022/05/01 04:01:55;;;;;;;10.20;4.30;;;;;;;17.77;35.91;98969.34;4489339;31;20368;-84
2022/05/01 04:04:21;;;;;;;10.00;4.53;;;;;;;17.78;35.55;98973.69;4503455;31;20088;-84
2022/05/01 04:06:46;;;;;;;10.38;4.30;;;;;;;17.77;35.81;98973.81;4489056;31;20118;-84
2022/05/01 04:09:12;;;;;;;9.98;4.07;;;;;;;17.81;36.02;98976.09;4503323;31;20083;-84
2022/05/01 04:11:38;;;;;;;9.55;4.03;;;;;;;17.80;35.51;98974.41;4489045;31;20088;-84
2022/05/01 04:14:03;;;;;;;10.40;4.03;;;;;;;17.89;36.60;98978.19;4503433;31;20100;-84
2022/05/01 04:16:29;;;;;;;10.75;4.80;;;;;;;17.79;36.91;98982.50;4502379;31;20116;-83
2022/05/01 04:18:54;;;;;;;9.63;4.18;;;;;;;17.54;36.72;98975.66;4503302;31;20084;-83
2022/05/01 04:21:19;;;;;;;9.82;4.68;;;;;;;17.73;36.52;98977.69;4503233;31;20106;-83
2022/05/01 04:23:45;;;;;;;9.88;3.95;;;;;;;17.78;37.35;98979.00;4503004;31;20076;-83
2022/05/01 04:26:10;;;;;;;9.75;4.20;;;;;;;17.90;36.99;98987.84;4503071;31;20108;-83
2022/05/01 04:28:36;;;;;;;11.12;4.53;;;;;;;18.00;37.06;98983.47;4502962;31;20441;-84
2022/05/01 04:31:01;;;;;;;10.95;4.70;;;;;;;18.03;37.02;98990.38;4502925;31;20088;-84
2022/05/01 04:33:27;;;;;;;12.13;5.05;;;;;;;18.09;37.47;98987.19;4488483;31;20161;-84
2022/05/01 04:35:53;;;;;;;13.43;6.32;;;;;;;18.14;37.23;98992.12;4503370;31;20092;-84
2022/05/01 04:38:21;;;;;;;12.52;4.85;;;;;;;18.18;36.56;98990.94;4488879;31;20162;-84
2022/05/01 04:40:53;;;;;;;10.40;4.93;;;;;;;18.20;37.17;98995.16;4503134;31;20124;-84
2022/05/01 04:43:21;;;;;;;13.38;5.43;;;;;;;18.32;36.78;98990.62;4502914;31;20077;-84
2022/05/01 04:45:53;;;;;;;11.15;5.35;;;;;;;18.41;36.48;98987.19;4502940;31;20152;-84
2022/05/01 04:48:19;;;;;;;14.45;6.80;;;;;;;18.46;36.16;98992.97;4502986;31;20084;-84
2022/05/01 04:50:45;;;;;;;13.65;6.47;;;;;;;18.44;35.30;98991.41;4502825;31;20490;-84
2022/05/01 04:53:12;;;;;;;16.25;7.37;;;;;;;18.54;36.47;98995.00;4502811;31;20582;-84
2022/05/01 04:55:42;;;;;;;15.15;7.40;;;;;;;18.62;34.34;98991.66;4488513;31;20095;-84
2022/05/01 04:58:09;;;;;;;15.40;7.57;;;;;;;18.74;33.84;98998.66;4502855;31;20080;-85
2022/05/01 05:00:35;;;;;;;16.37;8.55;;;;;;;18.92;33.55;98992.75;4500550;31;20096;-87
2022/05/01 05:03:00;;;;;;;16.50;7.40;;;;;;;19.00;33.48;98984.91;4481325;31;20165;-84
2022/05/01 05:05:28;;;;;;;14.77;6.93;;;;;;;19.27;34.11;98991.53;4493797;31;20088;-83
2022/05/01 05:07:54;;;;;;;15.02;7.40;;;;;;;19.38;33.90;98986.09;4502441;31;20088;-84
2022/05/01 05:10:19;;;;;;;15.32;7.12;;;;;;;19.60;32.46;98985.84;4502575;31;20500;-84
2022/05/01 05:12:46;;;;;;;14.25;7.07;;;;;;;19.66;33.06;98981.78;4502489;31;20100;-84
2022/05/01 05:15:15;;;;;;;14.07;7.07;;;;;;;19.80;33.52;98986.81;4502582;31;20459;-84
2022/05/01 05:17:42;;;;;;;13.52;6.90;;;;;;;19.98;33.47;98994.16;4488209;31;20144;-85
2022/05/01 05:20:09;;;;;;;12.55;6.30;;;;;;;20.02;32.12;98992.88;4502542;31;20100;-84
2022/05/01 05:22:34;;;;;;;14.25;6.50;;;;;;;20.13;31.22;98999.94;4488444;31;20130;-85
2022/05/01 05:25:01;;;;;;;15.85;6.97;;;;;;;20.10;31.33;98994.87;4502747;31;20450;-84
2022/05/01 05:27:26;;;;;;;13.73;6.47;;;;;;;20.05;31.94;98997.97;4502427;31;20114;-83
2022/05/01 05:29:55;;;;;;;12.77;6.12;;;;;;;20.19;31.92;98994.87;4502579;31;20084;-83
2022/05/01 05:32:21;;;;;;;13.52;6.18;;;;;;;20.11;32.18;99000.09;4499522;31;20614;-85
2022/05/01 05:34:48;;;;;;;11.48;5.78;;;;;;;20.13;31.97;99008.81;4486647;31;20100;-85
2022/05/01 05:37:14;;;;;;;12.80;5.72;;;;;;;20.27;31.76;99002.19;4501054;31;20114;-85
2022/05/01 05:39:40;;;;;;;12.95;6.07;;;;;;;20.38;31.69;99006.56;4487690;31;20106;-84
2022/05/01 05:42:06;;;;;;;12.80;6.25;;;;;;;20.43;31.69;99009.66;4501779;31;20088;-86
2022/05/01 05:44:31;;;;;;;12.70;6.20;;;;;;;20.49;31.50;99006.41;4502266;31;20138;-84
2022/05/01 05:46:56;;;;;;;12.55;5.87;;;;;;;20.64;31.80;99012.22;4502099;31;20080;-84
2022/05/01 05:49:22;;;;;;;12.15;5.85;;;;;;;20.75;31.69;99006.72;4487651;31;20133;-84
2022/05/01 05:51:47;;;;;;;11.35;5.47;;;;;;;20.83;31.86;99007.84;4502053;31;20072;-84
2022/05/01 05:54:16;;;;;;;12.10;6.00;;;;;;;20.84;31.44;99009.50;4502150;31;20107;-84
2022/05/01 05:56:41;;;;;;;12.65;5.65;;;;;;;20.83;31.33;99021.22;4501986;31;20110;-84
2022/05/01 05:59:07;;;;;;;11.07;5.12;;;;;;;20.94;30.84;99010.34;4487538;31;20116;-85
2022/05/01 06:01:32;;;;;;;10.75;5.07;;;;;;;21.06;31.59;99019.91;4501923;31;20122;-85
2022/05/01 06:03:58;;;;;;;12.45;5.70;;;;;;;21.01;31.70;99015.00;4502205;31;20340;-85
2022/05/01 06:06:23;;;;;;;11.93;5.65;;;;;;;21.01;31.58;99015.00;4502241;31;20092;-85
2022/05/01 06:08:49;;;;;;;11.30;5.10;;;;;;;21.08;31.72;99020.59;4487632;31;20487;-85
2022/05/01 06:11:14;;;;;;;10.93;5.20;;;;;;;21.10;31.37;99023.13;4501887;31;20104;-85
2022/05/01 06:13:39;;;;;;;13.82;5.57;;;;;;;21.25;31.13;99020.81;4501892;31;20141;-86
2022/05/01 06:16:05;;;;;;;12.05;5.45;;;;;;;21.31;30.05;99025.59;4502069;31;20100;-85
2022/05/01 06:18:30;;;;;;;12.25;5.68;;;;;;;21.12;29.92;99022.00;4501987;31;20072;-85
2022/05/01 06:20:57;;;;;;;13.02;5.75;;;;;;;21.37;30.16;99025.84;4501867;31;20096;-85
2022/05/01 06:23:22;;;;;;;12.13;4.87;;;;;;;21.43;30.05;99026.28;4487408;31;20126;-84
2022/05/01 06:25:49;;;;;;;12.82;5.18;;;;;;;21.47;30.48;99028.53;4501466;31;20348;-85
2022/05/01 06:28:15;;;;;;;10.88;5.32;;;;;;;21.67;29.66;99017.72;4501505;31;20386;-85
2022/05/01 06:30:43;;;;;;;11.65;5.68;;;;;;;21.75;29.95;99023.16;4501817;31;20117;-85
2022/05/01 06:33:10;;;;;;;11.90;5.75;;;;;;;21.78;29.69;99020.19;4487277;31;20119;-85
2022/05/01 06:35:36;;;;;;;13.18;5.22;;;;;;;21.77;30.24;99018.53;4487353;31;20464;-85
2022/05/01 06:38:02;;;;;;;12.27;5.37;;;;;;;21.99;29.79;99026.13;4501538;31;20237;-85
2022/05/01 06:40:28;;;;;;;11.02;5.05;;;;;;;22.08;29.35;99023.53;4488662;31;20116;-83
2022/05/01 06:42:54;;;;;;;12.18;5.87;;;;;;;22.21;29.55;99028.53;4503959;31;20151;-83
2022/05/01 06:45:19;;;;;;;11.82;5.07;;;;;;;22.28;29.35;99035.03;4489693;31;20179;-83
2022/05/01 06:47:45;;;;;;;11.43;4.82;;;;;;;22.34;29.41;99034.41;4504009;31;20076;-84
2022/05/01 06:50:10;;;;;;;12.23;5.40;;;;;;;22.35;29.63;99036.12;4489626;31;20126;-85
2022/05/01 06:52:36;;;;;;;12.75;5.57;;;;;;;22.28;29.25;99041.22;4503936;31;20144;-85
2022/05/01 06:55:01;;;;;;;11.73;5.53;;;;;;;22.29;29.82;99026.81;4503607;31;20148;-84
2022/05/01 06:57:27;;;;;;;10.10;5.07;;;;;;;21.96;29.64;99031.81;4503571;31;20113;-85
2022/05/01 06:59:53;;;;;;;11.80;5.25;;;;;;;22.18;29.69;99029.69;4499887;31;20127;-83
2022/05/01 07:02:19;;;;;;;12.45;5.00;;;;;;;22.27;29.82;99033.31;4503193;31;20147;-82
2022/05/01 07:04:44;;;;;;;11.80;5.75;;;;;;;22.39;29.73;99032.13;4489078;31;20135;-84
2022/05/01 07:07:10;;;;;;;11.27;4.82;;;;;;;22.40;29.62;99027.59;4503241;31;20364;-82
2022/05/01 07:09:35;;;;;;;11.80;4.80;;;;;;;22.47;30.47;99026.81;4503425;31;20122;-83
2022/05/01 07:12:01;;;;;;;11.05;5.10;;;;;;;22.70;30.73;99032.56;4503373;31;20135;-83
2022/05/01 07:14:26;;;;;;;10.25;4.95;;;;;;;22.92;29.97;99027.69;4496352;31;20432;-81
2022/05/01 07:16:52;;;;;;;10.95;5.05;;;;;;;23.10;29.18;99022.28;4473495;32;20352;-85
2022/05/01 07:19:17;;;;;;;10.10;4.53;;;;;;;22.96;29.16;99024.50;4487683;32;20147;-84
2022/05/01 07:21:42;;;;;;;11.00;4.80;;;;;;;22.90;29.88;99022.47;4487553;32;20111;-83
2022/05/01 07:24:08;;;;;;;10.63;4.97;;;;;;;22.97;29.80;99018.16;4473274;31;20114;-83
2022/05/01 07:26:33;;;;;;;11.43;5.15;;;;;;;22.97;30.18;99015.47;4501689;31;20068;-82
2022/05/01 07:29:00;;;;;;;10.63;5.03;;;;;;;23.15;30.02;99017.28;4488032;31;20146;-82
2022/05/01 07:31:26;;;;;;;11.65;5.18;;;;;;;23.26;29.57;99014.34;4502741;31;20095;-83
2022/05/01 07:33:52;;;;;;;10.90;5.12;;;;;;;23.28;29.34;99017.69;4488559;31;20087;-83
2022/05/01 07:36:19;;;;;;;10.93;4.90;;;;;;;23.25;30.25;99009.09;4489132;31;20117;-85
2022/05/01 07:38:45;;;;;;;11.23;5.07;;;;;;;23.36;29.63;99009.66;4503536;31;20193;-84
2022/05/01 07:41:10;;;;;;;10.90;4.60;;;;;;;23.34;30.05;99010.84;4484013;32;20101;-84
2022/05/01 07:43:36;;;;;;;9.60;4.37;;;;;;;23.28;30.13;99008.81;4485898;31;20439;-84
2022/05/01 07:46:02;;;;;;;10.15;4.78;;;;;;;23.09;30.92;99008.00;4486060;31;20137;-86
2022/05/01 07:48:27;;;;;;;10.10;4.47;;;;;;;23.01;31.11;99002.56;4491656;31;20125;-83
2022/05/01 07:50:53;;;;;;;10.38;3.87;;;;;;;23.09;31.46;98999.12;4494176;31;20112;-81
2022/05/01 07:53:18;;;;;;;10.32;4.00;;;;;;;22.97;31.85;99010.09;4479769;31;20464;-83
2022/05/01 07:55:44;;;;;;;10.27;4.28;;;;;;;22.83;31.22;99008.00;4488746;31;20106;-81
2022/05/01 07:58:09;;;;;;;10.48;4.07;;;;;;;22.94;31.12;99006.88;4490429;31;20124;-81
2022/05/01 08:00:35;;;;;;;9.35;3.58;;;;;;;22.87;31.73;99005.81;4488944;31;20080;-83
2022/05/01 08:05:45;;;;;;;9.40;3.83;;;;;;;23.08;31.18;99005.47;4489745;31;20135;-84
2022/05/01 08:08:11;;;;;;;8.75;3.83;;;;;;;23.10;31.36;98998.97;4491688;31;20174;-85
2022/05/01 08:10:36;;;;;;;11.02;3.67;;;;;;;23.02;31.29;99000.72;4493192;31;20096;-84
2022/05/01 08:13:02;;;;;;;9.55;3.87;;;;;;;23.04;31.29;98996.06;4491821;31;20395;-84
2022/05/01 08:15:27;;;;;;;8.40;3.62;;;;;;;23.31;31.37;98995.03;4492663;31;20126;-84
2022/05/01 08:17:53;;;;;;;8.57;3.62;;;;;;;23.42;31.49;98991.22;4493126;31;20197;-83
2022/05/01 08:23:07;;;;;;;8.35;3.12;;;;;;;23.68;30.43;98989.31;4490508;31;20485;-85
2022/05/01 08:25:33;;;;;;;8.40;3.22;;;;;;;23.78;30.34;98988.31;4490054;31;20114;-81
2022/05/01 08:27:59;;;;;;;18.15;3.83;;;;;;;23.75;30.65;98984.12;4489721;31;20122;-82
2022/05/01 08:30:25;;;;;;;9.80;3.85;;;;;;;23.94;29.63;98980.34;4493464;31;20099;-81
2022/05/01 08:32:50;;;;;;;9.90;3.78;;;;;;;23.92;30.11;98983.19;4473298;31;20127;-87
2022/05/01 08:35:16;;;;;;;8.32;3.40;;;;;;;24.00;29.75;98986.91;4492370;31;20100;-88
2022/05/01 08:37:41;;;;;;;11.12;4.30;;;;;;;24.05;29.96;98982.72;4493647;31;20180;-92
2022/05/01 08:40:08;;;;;;;8.20;3.40;;;;;;;24.03;29.39;98979.34;4490815;31;20122;-91
2022/05/01 08:42:37;;;;;;;9.52;3.90;;;;;;;24.00;30.18;98982.38;4489845;31;20559;-91
2022/05/01 08:45:03;;;;;;;9.68;3.40;;;;;;;24.01;29.93;98976.00;4473166;31;20115;-92
2022/05/01 08:48:12;;;;;;;9.63;3.67;;;;;;;23.88;30.00;98971.06;4486470;31;20105;-92
2022/05/01 08:50:38;;;;;;;8.68;3.45;;;;;;;23.79;30.42;98981.97;4489577;31;20100;-93
2022/05/01 08:53:05;;;;;;;10.93;3.65;;;;;;;23.70;30.99;98965.78;4490716;31;20183;-92
2022/05/01 08:55:30;;;;;;;9.50;3.60;;;;;;;23.65;31.05;98976.19;4486284;31;20556;-91
2022/05/01 08:57:57;;;;;;;8.73;2.53;;;;;;;23.41;31.35;98974.25;4493019;31;20127;-91
2022/05/01 09:00:23;;;;;;;5.90;2.33;;;;;;;23.41;30.33;98963.50;4488936;31;20904;-88
2022/05/01 09:02:48;;;;;;;5.72;2.20;;;;;;;23.43;29.87;98974.94;4458433;32;20142;-89
2022/05/01 09:05:14;;;;;;;6.22;2.28;;;;;;;23.40;29.39;98969.03;4486357;31;20084;-89
2022/05/01 09:07:39;;;;;;;5.57;2.10;;;;;;;23.26;29.33;98971.31;4486920;31;20148;-93
2022/05/01 09:10:08;;;;;;;5.30;1.80;;;;;;;23.24;29.17;98962.59;4473899;31;20097;-88
2022/05/01 09:12:53;;;;;;;5.07;1.60;;;;;;;23.20;29.27;98955.84;4488467;31;20118;-88
2022/05/01 09:15:40;;;;;;;4.80;1.90;;;;;;;23.20;27.84;98955.84;4495020;31;20096;-94
2022/05/01 09:18:14;;;;;;;4.57;1.65;;;;;;;23.15;27.83;98956.31;4488477;31;20122;-91
2022/05/01 09:21:06;;;;;;;6.05;1.95;;;;;;;23.04;28.82;98951.22;4487723;31;20449;-91
2022/05/01 09:23:46;;;;;;;5.45;2.03;;;;;;;23.00;29.40;98952.50;4474506;31;20104;-89
2022/05/01 09:26:13;;;;;;;5.18;2.30;;;;;;;23.16;28.45;98957.19;4486496;31;20083;-91
2022/05/01 09:28:49;;;;;;;;;;;;;;;23.05;28.56;98954.75;4462672;31;20119;-82
2022/05/01 09:31:15;;;;;;;;;;;;;;;23.01;27.03;98950.69;4474978;31;20002;-87
2022/05/01 09:33:40;;;;;;;;;;;;;;;22.99;27.67;98947.31;4490396;31;19980;-87
2022/05/01 09:36:06;;;;;;;;;;;;;;;23.12;28.54;98945.91;4485062;32;20044;-88
2022/05/01 09:38:32;;;;;;;;;;;;;;;23.05;29.26;98950.22;4495344;31;19975;-88
2022/05/01 09:41:00;;;;;;;;;;;;;;;22.93;29.84;98944.25;4488220;31;19979;-94
2022/05/01 09:43:38;;;;;;;;;;;;;;;23.11;28.30;98952.25;4474230;31;20007;-92
2022/05/01 09:46:10;;;;;;;;;;;;;;;23.11;27.92;98946.88;4493782;31;19988;-92
2022/05/01 09:48:35;;;;;;;;;;;;;;;23.19;28.72;98938.03;4494604;31;19991;-86
2022/05/01 09:51:00;;;;;;;;;;;;;;;23.23;28.53;98938.53;4470866;31;20032;-91
2022/05/01 09:53:27;;;;;;;;;;;;;;;23.27;29.24;98943.44;4483146;32;20061;-89
2022/05/01 09:55:59;;;;;;;;;;;;;;;23.07;28.94;98939.31;4491216;31;19987;-82
2022/05/01 09:58:26;;;;;;;;;;;;;;;23.17;28.22;98948.94;4490941;31;19975;-86
2022/05/01 10:00:51;;;;;;;;;;;;;;;22.99;28.71;98942.78;4483026;31;20075;-86
2022/05/01 10:03:19;;;;;;;;;;;;;;;23.34;28.79;98931.03;4486067;31;20002;-87
2022/05/01 10:05:45;;;;;;;;;;;;;;;23.27;27.98;98932.69;4496077;31;20472;-85
2022/05/01 10:08:11;;;;;;;;;;;;;;;23.41;27.59;98919.63;4475430;32;19988;-88
2022/05/01 10:10:36;;;;;;;;;;;;;;;23.53;28.39;98929.94;4471058;32;20277;-89
2022/05/01 10:13:01;;;;;;;;;;;;;;;23.29;26.46;98921.78;4497974;31;19968;-90
2022/05/01 10:15:27;;;;;;;;;;;;;;;23.36;27.57;98920.97;4475065;31;20003;-89
2022/05/01 10:17:52;;;;;;;;;;;;;;;23.44;27.30;98924.69;4469643;32;20372;-87
2022/05/01 10:20:18;;;;;;;;;;;;;;;23.51;26.71;98912.28;4476755;31;20000;-87
2022/05/01 10:22:43;;;;;;;;;;;;;;;23.57;27.11;98916.16;4475925;31;19997;-87
2022/05/01 10:25:11;;;;;;;;;;;;;;;23.56;25.82;98915.31;4475690;31;19983;-87
2022/05/01 10:27:46;;;;;;;;;;;;;;;23.57;26.08;98914.31;4477066;31;20339;-88
2022/05/01 10:33:13;;;;;;;;;;;;;;;23.57;25.82;98917.00;4489833;31;20457;-85
2022/05/01 10:35:57;;;;;;;;;;;;;;;23.53;26.44;98911.09;4493414;31;20006;-86
2022/05/01 10:38:25;;;;;;;;;;;;;;;23.65;25.20;98906.25;4473572;32;20007;-89
2022/05/01 10:40:55;;;;;;;;;;;;;;;23.69;25.97;98904.09;4494445;31;19984;-91
2022/05/01 10:43:30;;;;;;;;;;;;;;;23.82;26.51;98901.78;4476510;31;19979;-90
2022/05/01 10:46:00;;;;;;;;;;;;;;;23.88;26.16;98893.06;4492100;31;19979;-91
2022/05/01 10:48:32;;;;;;;;;;;;;;;23.96;26.01;98894.06;4490529;31;20040;-91
2022/05/01 10:51:16;;;;;;;;;;;;;;;24.08;26.41;98879.28;4476160;31;19999;-93
2022/05/01 10:53:42;;;;;;;;;;;;;;;24.16;26.62;98887.34;4490910;31;19988;-90
2022/05/01 10:56:17;;;;;;;;;;;;;;;24.26;26.09;98892.53;4490500;31;20674;-88
2022/05/01 10:58:42;;;;;;;;;;;;;;;24.34;25.91;98879.94;4463571;31;20353;-89
2022/05/01 11:01:08;;;;;;;;;;;;;;;24.46;26.29;98882.28;4475273;31;19999;-92
2022/05/01 11:03:33;;;;;;;;;;;;;;;24.44;25.15;98882.44;4490972;31;20271;-91
2022/05/01 11:06:01;;;;;;;;;;;;;;;24.41;25.24;98892.72;4479675;31;19991;-94
2022/05/01 11:08:29;;;;;;;;;;;;;;;24.42;25.16;98886.34;4487712;31;20013;-90
2022/05/01 11:10:56;;;;;;;;;;;;;;;24.38;25.00;98888.53;4491446;31;19990;-89
2022/05/01 11:13:23;;;;;;;;;;;;;;;24.34;23.52;98882.63;4488893;31;19998;-93
2022/05/01 11:15:50;;;;;;;;;;;;;;;24.31;24.23;98884.81;4478350;31;19986;-87
2022/05/01 11:18:15;;;;;;;;;;;;;;;24.40;23.54;98878.41;4489529;31;19975;-84
2022/05/01 11:20:43;;;;;;;;;;;;;;;24.47;23.98;98882.13;4490399;31;19983;-83
2022/05/01 11:23:28;;;;;;;;;;;;;;;24.23;24.89;98882.13;4490543;31;19994;-82
2022/05/01 11:26:04;;;;;;;;;;;;;;;24.59;24.65;98871.00;4489516;31;20058;-94
2022/05/01 11:28:46;;;;;;;;;;;;;;;24.72;24.97;98876.69;4491288;31;19984;-86
2022/05/01 11:31:30;;;;;;;;;;;;;;;24.88;24.80;98863.19;4498224;31;19998;-79
2022/05/01 11:34:13;;;;;;;;;;;;;;;25.05;24.40;98866.66;4487811;31;20090;-79
2022/05/01 11:36:51;;;;;;;;;;;;;;;25.16;24.55;98859.19;4496274;31;19975;-80
2022/05/01 11:39:16;;;;;;;;;;;;;;;25.28;23.70;98852.41;4487589;31;20287;-82
2022/05/01 11:41:42;;;;;;;;;;;;;;;25.45;24.40;98855.88;4495828;31;20002;-84
2022/05/01 11:44:20;;;;;;;;;;;;;;;25.42;24.34;98851.69;4488918;31;19987;-89
2022/05/01 11:46:47;;;;;;;;;;;;;;;25.41;23.32;98852.69;4476504;31;19988;-86
2022/05/01 11:49:12;;;;;;;;;;;;;;;25.56;23.54;98851.94;4489314;31;20003;-81
2022/05/01 11:51:38;;;;;;;;;;;;;;;25.63;23.37;98848.34;4471383;31;20017;-83
2022/05/01 11:54:05;;;;;;;;;;;;;;;25.76;22.93;98836.13;4460705;31;20041;-87
2022/05/01 12:04:44;;;;;;;;;;;;;;;25.34;22.34;98837.41;4486509;31;19993;-89
2022/05/01 12:07:15;;;;;;;;;;;;;;;25.33;22.55;98841.13;4472044;31;20020;-90
2022/05/01 12:09:40;;;;;;;;;;;;;;;25.27;22.49;98832.72;4473196;31;20011;-88
2022/05/01 12:12:06;;;;;;;;;;;;;;;25.27;22.04;98835.41;4489165;31;20468;-88
2022/05/01 12:14:32;;;;;;;;;;;;;;;25.37;22.18;98831.66;4485805;31;19980;-88
2022/05/01 12:16:58;;;;;;;;;;;;;;;25.41;22.31;98827.59;4482228;31;20305;-88
2022/05/01 12:19:36;;;;;;;;;;;;;;;25.31;22.13;98831.34;4471929;31;19999;-88